Air Navigation Services of Czech Republic
Airport: LKNA Updated:  23.09.2020 07:01:25  UTC
 METAR LKNA 23.09. 07:00 ...
METAR LKNA 230700Z 10011KT CAVOK 15/10 Q1009 NOSIG RMK BLU BLU=
 TAF LKNA 23.09. 05:00 ...
TAF LKNA 230500Z 2306/2406 12008KT CAVOK      BECMG 2306/2308 BKN030      TEMPO 2309/2317 16016KT      TEMPO 2314/2400 7000 SHRA SCT020TCU BKN025      PROB40 TEMPO 2315/2322 5000 TSRA SCT020CB BKN025      BECMG 2318/2320 24008KT      BECMG 2323/2401 3000 BR BKN008      PROB40 TEMPO 2401/2406 0800 FG OVC005=